This demonstration page uses our WeatherBlox Daily Observations layout. Learn more.

39.29038, -76.61219

Hourly Observations for December 10, 2019

Temp ( °F °C ) Dew Point ( °F °C ) Humidity (%) Winds ( mph kmh ) Pressure ( in mb ) Visibility ( mi km ) Precip ( " mm )
12:54 am 00:54 undefined 53 11.7 49 9.4 86 86 undefined N/A 29.8 1009 N/A 0 0
1:54 am 01:54 undefined 53 11.7 49 9.4 86 86 undefined N/A 29.8 1009 N/A 0 0
2:54 am 02:54 undefined 53 11.7 50 10 89 89 undefined N/A 29.8 1009 N/A 0 0
3:54 am 03:54 undefined 54 12.2 50 10 87 87 undefined N/A 29.8 1009 N/A 0 0
4:54 am 04:54 undefined 54 12.2 50 10 87 87 undefined N/A 29.8 1009 N/A 0 0
5:54 am 05:54 undefined 55 12.8 50 10 83 83 undefined N/A 29.8 1009 N/A 0 0
6:54 am 06:54 undefined 55 12.8 50 10 83 83 undefined N/A 29.82 1010 N/A 0 0
7:54 am 07:54 undefined 56 13.3 51 10.6 84 84 undefined N/A 29.83 1010 N/A 0 0
8:54 am 08:54 undefined 57 13.9 52 11.1 83 83 undefined N/A 29.84 1011 N/A 0 0
9:54 am 09:54 undefined 58 14.4 53 11.7 84 84 undefined N/A 29.85 1011 N/A 0 0
10:54 am 10:54 undefined 58 14.4 54 12.2 87 87 undefined N/A 29.84 1011 N/A 0.02 0.508
11:54 am 11:54 undefined 58 14.4 55 12.8 90 90 undefined N/A 29.85 1011 N/A 0.02 0.508
12:54 pm 12:54 undefined 58 14.4 55 12.8 90 90 undefined N/A 29.86 1011 N/A 0 0
1:54 pm 13:54 undefined 58 14.4 55 12.8 90 90 undefined N/A 29.86 1011 N/A 0 0
2:54 pm 14:54 undefined 58 14.4 55 12.8 90 90 undefined N/A 29.88 1012 N/A 0 0
3:54 pm 15:54 undefined 57 13.9 50 10 78 78 undefined N/A 29.91 1013 N/A 0 0
4:54 pm 16:54 undefined 57 13.9 49 9.4 74 74 undefined N/A 29.93 1014 N/A 0 0
5:54 pm 17:54 undefined 53 11.7 46 7.8 77 77 undefined N/A 29.96 1015 N/A 0.01 0.254
6:54 pm 18:54 undefined 52 11.1 43 6.1 72 72 undefined N/A 29.99 1016 N/A 0 0
7:54 pm 19:54 undefined 48 8.9 40 4.4 74 74 undefined N/A 30.04 1017 N/A 0.02 0.508
8:54 pm 20:54 undefined 46 7.8 38 3.3 73 73 undefined N/A 30.07 1018 N/A 0 0
9:54 pm 21:54 undefined 44 6.7 38 3.3 79 79 undefined N/A 30.11 1020 N/A 0.01 0.254
10:54 pm 22:54 undefined 41 5 34 1.1 76 76 undefined N/A 30.14 1021 N/A 0.01 0.254
11:54 pm 23:54 undefined 38 3.3 33 0.6 83 83 undefined N/A 30.15 1021 N/A 0.04 1.016

Powered by AerisWeather